createdAt,value
2019-02-23T00:00:52.748Z,59.90
2019-02-23T00:03:22.439Z,60.30
2019-02-23T00:05:52.251Z,59.80
2019-02-23T00:08:22.495Z,59.80
2019-02-23T00:10:52.319Z,59.80
2019-02-23T00:13:21.735Z,59.90
2019-02-23T00:15:51.187Z,60.20
2019-02-23T00:18:20.608Z,59.90
2019-02-23T00:20:50.022Z,59.50
2019-02-23T00:23:19.688Z,59.70
2019-02-23T00:25:49.108Z,59.80
2019-02-23T00:28:18.599Z,60.00
2019-02-23T00:30:48.293Z,59.60
2019-02-23T00:33:17.727Z,59.60
2019-02-23T00:35:47.147Z,59.80
2019-02-23T00:38:16.604Z,59.80
2019-02-23T00:40:46.079Z,59.80
2019-02-23T00:43:16.883Z,59.90
2019-02-23T00:45:46.863Z,59.80
2019-02-23T00:48:16.282Z,59.80
2019-02-23T00:50:45.764Z,60.00
2019-02-23T00:53:15.733Z,59.70
2019-02-23T00:55:45.220Z,59.90
2019-02-23T00:58:14.638Z,59.70
2019-02-23T01:00:44.455Z,59.90
2019-02-23T01:03:14.183Z,60.20
2019-02-23T01:05:43.603Z,59.80
2019-02-23T01:08:13.131Z,60.10
2019-02-23T01:10:42.552Z,60.10
2019-02-23T01:13:12.217Z,59.80
2019-02-23T01:15:42.161Z,60.10
2019-02-23T01:18:11.639Z,60.00
2019-02-23T01:20:41.321Z,60.30
2019-02-23T01:23:11.128Z,60.50
2019-02-23T01:25:40.579Z,60.50
2019-02-23T01:28:10.173Z,60.50
2019-02-23T01:30:39.966Z,60.50
2019-02-23T01:33:09.550Z,60.50
2019-02-23T01:35:39.371Z,60.30
2019-02-23T01:38:09.612Z,60.30
2019-02-23T01:40:39.099Z,60.30
2019-02-23T01:43:08.525Z,59.80
2019-02-23T01:45:42.215Z,59.60
2019-02-23T01:48:10.412Z,59.50
2019-02-23T01:50:40.223Z,59.30
2019-02-23T01:53:10.315Z,59.30
2019-02-23T01:55:39.808Z,59.40
2019-02-23T01:58:09.536Z,59.40
2019-02-23T02:00:40.740Z,59.50
2019-02-23T02:03:10.591Z,59.70
2019-02-23T02:05:41.124Z,59.60
2019-02-23T02:08:10.867Z,59.80
2019-02-23T02:10:40.295Z,59.80
2019-02-23T02:13:10.359Z,60.20
2019-02-23T02:15:40.143Z,60.30
2019-02-23T02:18:11.004Z,60.20
2019-02-23T02:20:40.543Z,60.10
2019-02-23T02:23:10.107Z,60.10
2019-02-23T02:25:39.651Z,59.90
2019-02-23T02:28:09.440Z,59.80
2019-02-23T02:30:39.303Z,59.30
2019-02-23T02:33:08.823Z,59.30
2019-02-23T02:35:38.686Z,59.30
2019-02-23T02:38:08.245Z,59.00
2019-02-23T02:40:37.670Z,59.40
2019-02-23T02:43:08.008Z,59.00
2019-02-23T02:45:37.924Z,58.70
2019-02-23T02:48:08.487Z,58.60
2019-02-23T02:50:38.376Z,58.70
2019-02-23T02:53:08.517Z,58.50
2019-02-23T02:55:38.023Z,58.50
2019-02-23T02:58:07.517Z,58.90
2019-02-23T03:00:37.396Z,59.00
2019-02-23T03:03:06.824Z,58.80
2019-02-23T03:05:36.250Z,59.10
2019-02-23T03:08:06.565Z,58.50
2019-02-23T03:10:36.364Z,59.10
2019-02-23T03:13:05.796Z,58.90
2019-02-23T03:15:35.564Z,58.80
2019-02-23T03:18:04.988Z,59.20
2019-02-23T03:20:36.817Z,59.10
2019-02-23T03:23:05.975Z,59.60
2019-02-23T03:25:35.404Z,59.20
2019-02-23T03:28:04.894Z,59.10
2019-02-23T03:30:34.425Z,59.30
2019-02-23T03:33:04.117Z,59.50
2019-02-23T03:35:33.569Z,59.50
2019-02-23T03:38:03.372Z,59.20
2019-02-23T03:40:32.875Z,59.10
2019-02-23T03:43:02.298Z,59.10
2019-02-23T03:45:32.105Z,59.50
2019-02-23T03:48:01.832Z,59.40
2019-02-23T03:50:32.638Z,59.40
2019-02-23T03:53:02.335Z,59.70
2019-02-23T03:55:31.933Z,59.60
2019-02-23T03:58:01.415Z,59.80
2019-02-23T04:00:31.031Z,59.80
2019-02-23T04:03:00.449Z,59.90
2019-02-23T04:05:30.465Z,59.30
2019-02-23T04:08:00.330Z,60.00
2019-02-23T04:10:29.829Z,59.50
2019-02-23T04:12:59.463Z,59.50
2019-02-23T04:15:28.976Z,59.70
2019-02-23T04:17:58.585Z,59.60
2019-02-23T04:20:28.012Z,59.90
2019-02-23T04:22:57.503Z,59.60
2019-02-23T04:25:27.000Z,59.70
2019-02-23T04:27:56.522Z,60.00
2019-02-23T04:30:26.692Z,59.60
2019-02-23T04:32:56.103Z,59.80
2019-02-23T04:35:25.595Z,60.40
2019-02-23T04:37:55.047Z,59.70
2019-02-23T04:40:24.489Z,59.70
2019-02-23T04:42:54.428Z,59.50
2019-02-23T04:45:24.160Z,59.90
2019-02-23T04:47:53.652Z,60.00
2019-02-23T04:50:23.279Z,59.70
2019-02-23T04:52:53.998Z,59.60
2019-02-23T04:55:23.501Z,59.50
2019-02-23T04:57:53.310Z,59.80
2019-02-23T05:00:23.036Z,59.80
2019-02-23T05:02:53.024Z,59.50
2019-02-23T05:05:22.516Z,59.90
2019-02-23T05:07:52.307Z,59.70
2019-02-23T05:10:21.727Z,59.50
2019-02-23T05:12:51.156Z,59.10
2019-02-23T05:15:20.932Z,59.60
2019-02-23T05:17:50.701Z,59.40
2019-02-23T05:20:20.492Z,59.30
2019-02-23T05:22:49.958Z,59.30
2019-02-23T05:25:19.449Z,59.30
2019-02-23T05:27:48.939Z,59.10
2019-02-23T05:30:19.141Z,59.40
2019-02-23T05:32:48.949Z,59.50
2019-02-23T05:35:19.035Z,59.20
2019-02-23T05:37:48.567Z,59.30
2019-02-23T05:40:18.203Z,59.00
2019-02-23T05:42:47.625Z,59.20
2019-02-23T05:45:17.521Z,59.10
2019-02-23T05:47:47.030Z,59.20
2019-02-23T05:50:16.516Z,59.00
2019-02-23T05:52:46.163Z,59.10
2019-02-23T05:55:17.013Z,59.20
2019-02-23T05:57:46.445Z,58.90
2019-02-23T06:00:16.272Z,59.00
2019-02-23T06:02:45.813Z,58.80
2019-02-23T06:05:15.515Z,58.90
2019-02-23T06:07:45.298Z,59.00
2019-02-23T06:10:16.138Z,59.00
2019-02-23T06:12:45.625Z,58.70
2019-02-23T06:15:15.756Z,58.40
2019-02-23T06:17:45.173Z,58.40
2019-02-23T06:20:14.677Z,58.50
2019-02-23T06:22:46.693Z,58.70
2019-02-23T06:25:15.658Z,58.70
2019-02-23T06:27:45.248Z,58.60
2019-02-23T06:30:14.827Z,58.90
2019-02-23T06:32:44.255Z,58.90
2019-02-23T06:35:13.795Z,58.90
2019-02-23T06:37:43.720Z,59.00
2019-02-23T06:40:13.344Z,59.00
2019-02-23T06:42:43.296Z,59.00
2019-02-23T06:45:13.479Z,59.00
2019-02-23T06:47:43.028Z,59.20
2019-02-23T06:50:12.947Z,59.70
2019-02-23T06:52:42.523Z,59.50
2019-02-23T06:55:12.764Z,59.50
2019-02-23T06:57:42.441Z,59.20
2019-02-23T07:00:14.859Z,59.20
2019-02-23T07:02:44.547Z,59.00
2019-02-23T07:05:14.318Z,59.10
2019-02-23T07:07:43.856Z,59.00
2019-02-23T07:10:14.469Z,59.10
2019-02-23T07:12:44.272Z,59.10
2019-02-23T07:15:14.904Z,59.10
2019-02-23T07:17:44.455Z,59.20
2019-02-23T07:20:14.377Z,58.90
2019-02-23T07:22:44.411Z,58.80
2019-02-23T07:25:14.407Z,58.70
2019-02-23T07:27:43.848Z,58.70
2019-02-23T07:30:16.198Z,58.60
2019-02-23T07:32:46.112Z,58.30
2019-02-23T07:35:16.152Z,58.30
2019-02-23T07:37:48.403Z,58.40
2019-02-23T07:40:18.112Z,58.40
2019-02-23T07:42:47.699Z,58.30
2019-02-23T07:45:17.147Z,58.70
2019-02-23T07:47:46.784Z,58.20
2019-02-23T07:50:17.389Z,58.50
2019-02-23T07:52:47.280Z,58.70
2019-02-23T07:55:17.085Z,58.80
2019-02-23T07:57:46.844Z,58.70
2019-02-23T08:00:17.423Z,58.60
2019-02-23T08:02:46.847Z,58.70
2019-02-23T08:05:16.848Z,58.50
2019-02-23T08:07:46.795Z,58.50
2019-02-23T08:10:17.324Z,58.50
2019-02-23T08:12:46.911Z,58.40
2019-02-23T08:15:16.537Z,58.30
2019-02-23T08:17:46.219Z,58.70
2019-02-23T08:20:17.460Z,58.10
2019-02-23T08:22:47.040Z,58.00
2019-02-23T08:25:16.796Z,58.10
2019-02-23T08:27:47.183Z,58.30
2019-02-23T08:30:17.687Z,58.20
2019-02-23T08:32:47.145Z,58.10
2019-02-23T08:35:16.951Z,57.80
2019-02-23T08:37:46.404Z,58.00
2019-02-23T08:40:17.258Z,57.80
2019-02-23T08:42:49.263Z,57.20
2019-02-23T08:45:20.078Z,57.60
2019-02-23T08:47:56.981Z,57.60
2019-02-23T08:50:27.667Z,57.40
2019-02-23T08:52:57.177Z,57.80
2019-02-23T08:55:26.966Z,56.80
2019-02-23T08:57:58.175Z,57.10
2019-02-23T09:00:28.884Z,57.20
2019-02-23T09:02:58.375Z,57.20
2019-02-23T09:05:28.652Z,56.80
2019-02-23T09:07:58.296Z,56.80
2019-02-23T09:10:28.804Z,55.80
2019-02-23T09:12:58.369Z,55.40
2019-02-23T09:15:28.020Z,55.60
2019-02-23T09:18:01.565Z,55.40
2019-02-23T09:20:31.289Z,56.00
2019-02-23T09:23:01.983Z,55.80
2019-02-23T09:25:31.591Z,55.60
2019-02-23T09:28:01.313Z,55.70
2019-02-23T09:30:31.339Z,55.90
2019-02-23T09:33:00.857Z,56.50
2019-02-23T09:35:32.587Z,56.70
2019-02-23T09:38:04.015Z,56.60
2019-02-23T09:40:33.728Z,55.20
2019-02-23T09:43:03.321Z,55.10
2019-02-23T09:45:32.841Z,55.40
2019-02-23T09:48:03.302Z,54.80
2019-02-23T09:50:33.319Z,54.70
2019-02-23T09:53:11.210Z,54.80
2019-02-23T09:55:37.353Z,55.60
2019-02-23T09:58:07.048Z,55.00
2019-02-23T10:00:37.496Z,54.20
2019-02-23T10:03:08.398Z,58.90
2019-02-23T10:05:38.383Z,57.40
2019-02-23T10:08:08.143Z,56.80
2019-02-23T10:10:37.559Z,53.80
2019-02-23T10:13:07.412Z,53.20
2019-02-23T10:15:36.840Z,53.00
2019-02-23T10:18:06.676Z,55.10
2019-02-23T10:20:36.223Z,53.80
2019-02-23T10:23:06.051Z,52.50
2019-02-23T10:25:36.174Z,48.80
2019-02-23T10:28:08.191Z,51.60
2019-02-23T10:30:38.990Z,51.90
2019-02-23T10:33:08.891Z,49.00
2019-02-23T10:35:38.700Z,50.00
2019-02-23T10:38:08.131Z,48.30
2019-02-23T10:40:39.759Z,48.30
2019-02-23T10:43:09.269Z,48.80
2019-02-23T10:45:38.708Z,45.40
2019-02-23T10:48:08.399Z,48.80
2019-02-23T10:50:38.027Z,46.80
2019-02-23T10:53:08.031Z,45.20
2019-02-23T10:55:37.920Z,47.00
2019-02-23T10:58:07.576Z,49.00
2019-02-23T11:00:37.987Z,46.40
2019-02-23T11:03:07.868Z,46.00
2019-02-23T11:05:37.579Z,42.80
2019-02-23T11:08:07.432Z,44.30
2019-02-23T11:10:36.950Z,47.10
2019-02-23T11:13:06.769Z,43.90
2019-02-23T11:15:36.544Z,42.80
2019-02-23T11:18:06.515Z,44.20
2019-02-23T11:20:36.460Z,43.10
2019-02-23T11:23:06.373Z,41.10
2019-02-23T11:25:35.900Z,41.80
2019-02-23T11:28:06.607Z,43.60
2019-02-23T11:30:36.327Z,43.70
2019-02-23T11:33:06.246Z,42.60
2019-02-23T11:35:36.007Z,43.60
2019-02-23T11:38:05.789Z,40.10
2019-02-23T11:40:36.576Z,41.00
2019-02-23T11:43:06.267Z,41.30
2019-02-23T11:45:36.819Z,39.60
2019-02-23T11:48:06.371Z,37.20
2019-02-23T11:50:38.201Z,37.70
2019-02-23T11:53:09.167Z,39.80
2019-02-23T11:55:39.367Z,37.90
2019-02-23T11:58:09.492Z,37.50
2019-02-23T12:00:39.024Z,36.60
2019-02-23T12:03:08.664Z,37.10
2019-02-23T12:05:41.687Z,40.60
2019-02-23T12:08:11.160Z,34.20
2019-02-23T12:10:42.028Z,34.50
2019-02-23T12:13:12.832Z,37.30
2019-02-23T12:15:42.796Z,38.20
2019-02-23T12:18:12.807Z,39.20
2019-02-23T12:20:42.687Z,38.90
2019-02-23T12:23:12.444Z,37.40
2019-02-23T12:25:41.888Z,38.40
2019-02-23T12:28:13.672Z,38.30
2019-02-23T12:30:43.167Z,39.90
2019-02-23T12:33:12.603Z,34.40
2019-02-23T12:35:42.126Z,36.50
2019-02-23T12:38:11.601Z,36.80
2019-02-23T12:40:41.108Z,33.70
2019-02-23T12:43:11.326Z,32.40
2019-02-23T12:45:40.884Z,34.80
2019-02-23T12:48:10.359Z,35.00
2019-02-23T12:50:40.092Z,34.80
2019-02-23T12:53:09.799Z,33.30
2019-02-23T12:55:39.235Z,35.10
2019-02-23T12:58:08.827Z,33.50
2019-02-23T13:00:38.451Z,32.00
2019-02-23T13:03:08.157Z,34.60
2019-02-23T13:05:38.162Z,34.30
2019-02-23T13:08:07.879Z,34.30
2019-02-23T13:10:37.685Z,38.40
2019-02-23T13:13:20.977Z,33.50
2019-02-23T13:15:56.753Z,33.30
2019-02-23T13:18:48.025Z,30.50
2019-02-23T13:21:23.972Z,33.10
2019-02-23T13:24:28.291Z,30.90
2019-02-23T13:27:05.092Z,32.70
2019-02-23T13:30:14.436Z,29.00
2019-02-23T13:32:56.029Z,30.10
2019-02-23T13:35:34.227Z,30.00
2019-02-23T13:38:06.779Z,30.50
2019-02-23T13:40:47.952Z,30.00
2019-02-23T13:43:32.080Z,31.10
2019-02-23T13:46:22.914Z,27.10
2019-02-23T13:49:16.391Z,28.80
2019-02-23T13:51:49.043Z,27.60
2019-02-23T13:54:48.096Z,28.60
2019-02-23T13:57:39.011Z,28.60
2019-02-23T14:00:14.273Z,32.10
2019-02-23T14:03:03.230Z,31.60
2019-02-23T14:05:45.135Z,31.30
2019-02-23T14:08:39.723Z,31.40
2019-02-23T14:11:18.096Z,31.30
2019-02-23T14:13:57.062Z,31.20
2019-02-23T14:16:44.488Z,30.60
2019-02-23T14:19:33.967Z,32.00
2019-02-23T14:22:23.163Z,30.60
2019-02-23T14:25:11.523Z,29.90
2019-02-23T14:28:10.855Z,29.90
2019-02-23T14:31:13.700Z,30.00
2019-02-23T14:33:54.836Z,29.30
2019-02-23T14:36:33.880Z,30.00
2019-02-23T14:39:40.967Z,29.60
2019-02-23T14:42:22.859Z,30.00
2019-02-23T14:45:18.071Z,30.50
2019-02-23T14:48:24.575Z,30.90
2019-02-23T14:51:09.137Z,30.50
2019-02-23T14:53:44.670Z,30.60
2019-02-23T14:56:29.228Z,30.00
2019-02-23T14:59:07.655Z,30.60
2019-02-23T15:01:45.994Z,30.90
2019-02-23T15:04:30.730Z,31.10
2019-02-23T15:07:25.844Z,30.70
2019-02-23T15:10:14.784Z,30.00
2019-02-23T15:13:05.570Z,30.00
2019-02-23T15:15:59.152Z,30.50
2019-02-23T15:18:43.736Z,30.00
2019-02-23T15:21:35.623Z,31.00
2019-02-23T15:24:14.224Z,30.90
2019-02-23T15:27:04.939Z,30.10
2019-02-23T15:29:59.856Z,31.00
2019-02-23T15:32:48.899Z,30.90
2019-02-23T15:35:48.460Z,31.00
2019-02-23T15:38:38.535Z,30.70
2019-02-23T15:41:27.610Z,31.20
2019-02-23T15:44:17.704Z,30.80
2019-02-23T15:47:08.376Z,30.90
2019-02-23T15:49:38.005Z,30.80
2019-02-23T15:52:07.636Z,31.30
2019-02-23T15:54:37.632Z,31.10
2019-02-23T15:57:08.331Z,32.00
2019-02-23T15:59:37.983Z,31.30
2019-02-23T16:02:08.002Z,31.30
2019-02-23T16:04:38.052Z,31.30
2019-02-23T16:07:07.645Z,31.10
2019-02-23T16:09:37.215Z,31.20
2019-02-23T16:12:07.340Z,31.60
2019-02-23T16:14:36.768Z,31.70
2019-02-23T16:17:06.195Z,31.90
2019-02-23T16:19:35.912Z,31.60
2019-02-23T16:22:05.860Z,31.80
2019-02-23T16:24:35.782Z,31.70
2019-02-23T16:27:07.202Z,32.30
2019-02-23T16:29:38.857Z,31.80
2019-02-23T16:32:09.936Z,32.30
2019-02-23T16:34:58.829Z,32.30
2019-02-23T16:37:28.521Z,32.50
2019-02-23T16:39:58.423Z,32.20
2019-02-23T16:42:27.892Z,32.70
2019-02-23T16:44:57.346Z,32.50
2019-02-23T16:47:27.306Z,33.20
2019-02-23T16:49:59.229Z,32.50
2019-02-23T16:52:35.119Z,32.80
2019-02-23T16:55:05.390Z,32.60
2019-02-23T16:57:34.987Z,33.10
2019-02-23T17:00:06.549Z,33.30
2019-02-23T17:02:36.228Z,33.00
2019-02-23T17:05:07.516Z,33.30
2019-02-23T17:07:36.967Z,33.10
2019-02-23T17:10:08.232Z,33.60
2019-02-23T17:12:43.619Z,33.10
2019-02-23T17:15:13.577Z,33.50
2019-02-23T17:17:43.080Z,33.20
2019-02-23T17:20:12.507Z,33.40
2019-02-23T17:22:42.619Z,33.50
2019-02-23T17:25:12.534Z,33.80
2019-02-23T17:27:42.171Z,33.80
2019-02-23T17:30:31.246Z,33.60
2019-02-23T17:33:00.682Z,33.60
2019-02-23T17:35:30.523Z,33.60
2019-02-23T17:38:00.184Z,33.90
2019-02-23T17:40:31.136Z,33.90
2019-02-23T17:43:00.564Z,33.90
2019-02-23T17:45:30.139Z,33.70
2019-02-23T17:47:59.620Z,33.90
2019-02-23T17:50:29.196Z,33.90
2019-02-23T17:52:58.961Z,33.60
2019-02-23T17:55:28.499Z,33.40
2019-02-23T17:57:58.285Z,33.50
2019-02-23T18:00:27.874Z,34.30
2019-02-23T18:02:57.383Z,34.60
2019-02-23T18:05:33.724Z,34.70
2019-02-23T18:08:03.609Z,34.60
2019-02-23T18:10:33.033Z,34.90
2019-02-23T18:13:02.902Z,34.90
2019-02-23T18:15:32.399Z,34.60
2019-02-23T18:18:02.680Z,34.80
2019-02-23T18:20:32.234Z,34.60
2019-02-23T18:23:02.277Z,34.50
2019-02-23T18:25:31.840Z,33.90
2019-02-23T18:28:03.859Z,34.00
2019-02-23T18:30:33.396Z,34.30
2019-02-23T18:33:03.159Z,34.50
2019-02-23T18:35:32.784Z,34.20
2019-02-23T18:38:02.543Z,34.30
2019-02-23T18:40:32.496Z,34.40
2019-02-23T18:43:01.983Z,34.30
2019-02-23T18:45:47.444Z,34.00
2019-02-23T18:48:34.598Z,33.90
2019-02-23T18:51:04.785Z,33.90
2019-02-23T18:53:34.367Z,33.90
2019-02-23T18:56:05.478Z,34.20
2019-02-23T18:58:34.949Z,34.20
2019-02-23T19:01:04.571Z,34.20
2019-02-23T19:03:34.163Z,34.50
2019-02-23T19:06:03.662Z,34.10
2019-02-23T19:08:33.207Z,34.20
2019-02-23T19:11:02.672Z,34.10
2019-02-23T19:13:32.168Z,34.10
2019-02-23T19:16:01.655Z,34.20
2019-02-23T19:18:31.650Z,34.20
2019-02-23T19:21:02.207Z,34.20
2019-02-23T19:23:31.732Z,34.50
2019-02-23T19:26:01.179Z,34.20
2019-02-23T19:28:31.328Z,34.80
2019-02-23T19:31:03.017Z,34.30
2019-02-23T19:33:32.722Z,34.20
2019-02-23T19:36:02.594Z,34.40
2019-02-23T19:38:32.155Z,34.50
2019-02-23T19:41:01.780Z,34.80
2019-02-23T19:43:31.383Z,34.70
2019-02-23T19:46:01.836Z,34.50
2019-02-23T19:48:31.285Z,34.60
2019-02-23T19:51:03.999Z,34.60
2019-02-23T19:53:33.836Z,34.70
2019-02-23T19:56:03.503Z,34.60
2019-02-23T19:58:32.935Z,34.70
2019-02-23T20:01:03.560Z,34.70
2019-02-23T20:03:33.428Z,34.80
2019-02-23T20:06:03.977Z,34.80
2019-02-23T20:08:33.607Z,35.10
2019-02-23T20:11:03.219Z,34.90
2019-02-23T20:13:32.804Z,35.20
2019-02-23T20:16:02.565Z,35.30
2019-02-23T20:18:32.435Z,35.20
2019-02-23T20:21:02.496Z,35.40
2019-02-23T20:23:33.329Z,35.20
2019-02-23T20:26:02.839Z,35.10
2019-02-23T20:28:33.527Z,35.00
2019-02-23T20:31:03.592Z,35.20
2019-02-23T20:33:33.054Z,35.40
2019-02-23T20:36:03.563Z,35.30
2019-02-23T20:38:33.579Z,35.40
2019-02-23T20:41:03.319Z,35.30
2019-02-23T20:43:32.950Z,35.30
2019-02-23T20:46:02.644Z,35.40
2019-02-23T20:48:32.420Z,35.60
2019-02-23T20:51:01.999Z,35.70
2019-02-23T20:53:32.392Z,35.70
2019-02-23T20:56:02.069Z,35.70
2019-02-23T20:58:31.555Z,35.80
2019-02-23T21:01:01.305Z,35.90
2019-02-23T21:03:32.081Z,35.80
2019-02-23T21:06:01.767Z,35.90
2019-02-23T21:08:31.362Z,36.10
2019-02-23T21:11:01.039Z,36.00
2019-02-23T21:13:30.888Z,36.10
2019-02-23T21:16:01.041Z,36.20
2019-02-23T21:18:30.608Z,36.20
2019-02-23T21:21:00.363Z,36.20
2019-02-23T21:23:30.255Z,36.50
2019-02-23T21:26:00.017Z,36.70
2019-02-23T21:28:29.645Z,36.70
2019-02-23T21:30:59.414Z,37.30
2019-02-23T21:33:28.923Z,37.00
2019-02-23T21:35:58.419Z,36.80
2019-02-23T21:38:27.952Z,37.10
2019-02-23T21:40:57.378Z,37.00
2019-02-23T21:43:27.244Z,37.30
2019-02-23T21:45:57.011Z,37.60
2019-02-23T21:48:26.507Z,37.20
2019-02-23T21:50:56.575Z,37.00
2019-02-23T21:53:26.575Z,37.40
2019-02-23T21:55:56.556Z,37.80
2019-02-23T21:58:26.584Z,38.60
2019-02-23T22:00:56.204Z,39.10
2019-02-23T22:03:25.628Z,40.10
2019-02-23T22:05:55.206Z,38.80
2019-02-23T22:08:25.020Z,38.90
2019-02-23T22:10:54.512Z,38.60
2019-02-23T22:13:24.068Z,39.10
2019-02-23T22:15:53.648Z,39.50
2019-02-23T22:18:23.145Z,40.00
2019-02-23T22:20:52.827Z,40.30
2019-02-23T22:23:22.471Z,40.20
2019-02-23T22:25:52.373Z,39.10
2019-02-23T22:28:21.868Z,40.20
2019-02-23T22:30:51.379Z,39.50
2019-02-23T22:33:20.884Z,39.50
2019-02-23T22:35:50.388Z,40.70
2019-02-23T22:38:20.366Z,39.70
2019-02-23T22:40:50.058Z,41.20
2019-02-23T22:43:19.780Z,40.50
2019-02-23T22:45:49.963Z,40.20
2019-02-23T22:48:19.439Z,39.90
2019-02-23T22:50:49.244Z,40.70
2019-02-23T22:53:19.213Z,40.60
2019-02-23T22:55:49.052Z,40.40
2019-02-23T22:58:18.536Z,40.90
2019-02-23T23:00:56.255Z,40.60
2019-02-23T23:03:25.734Z,40.70
2019-02-23T23:05:55.232Z,40.50
2019-02-23T23:08:24.748Z,40.50
2019-02-23T23:10:54.166Z,40.20
2019-02-23T23:13:23.583Z,40.20
2019-02-23T23:15:53.108Z,40.50
2019-02-23T23:18:22.611Z,40.60
2019-02-23T23:20:52.275Z,40.10
2019-02-23T23:23:21.730Z,40.50
2019-02-23T23:25:51.518Z,40.40
2019-02-23T23:28:21.304Z,40.20
2019-02-23T23:30:51.861Z,40.30
2019-02-23T23:33:21.674Z,40.50
2019-02-23T23:35:51.164Z,40.70
2019-02-23T23:38:20.913Z,40.70
2019-02-23T23:40:50.424Z,40.10
2019-02-23T23:43:19.975Z,40.10
2019-02-23T23:45:49.711Z,41.70
2019-02-23T23:48:19.140Z,41.50
2019-02-23T23:50:48.644Z,41.00
2019-02-23T23:53:18.396Z,40.90
2019-02-23T23:55:48.327Z,40.70
2019-02-23T23:58:17.751Z,41.30
